sensor_id;sensor_type;location;lat;lon;timestamp;P1;durP1;ratioP1;P2;durP2;ratioP2
40252;SDS011;25972;51.854;4.534;2022-12-24T00:02:22;29.25;;;4.70;;
40252;SDS011;25972;51.854;4.534;2022-12-24T00:04:48;30.05;;;4.07;;
40252;SDS011;25972;51.854;4.534;2022-12-24T00:07:14;39.63;;;4.57;;
40252;SDS011;25972;51.854;4.534;2022-12-24T00:09:40;20.17;;;3.17;;
40252;SDS011;25972;51.854;4.534;2022-12-24T00:12:06;22.80;;;3.95;;
40252;SDS011;25972;51.854;4.534;2022-12-24T00:14:32;29.95;;;3.80;;
40252;SDS011;25972;51.854;4.534;2022-12-24T00:16:57;38.38;;;5.60;;
40252;SDS011;25972;51.854;4.534;2022-12-24T00:19:23;37.47;;;3.80;;
40252;SDS011;25972;51.854;4.534;2022-12-24T00:21:49;38.72;;;5.95;;
40252;SDS011;25972;51.854;4.534;2022-12-24T00:24:15;28.52;;;4.47;;
40252;SDS011;25972;51.854;4.534;2022-12-24T00:26:41;47.28;;;4.32;;
40252;SDS011;25972;51.854;4.534;2022-12-24T00:29:07;29.30;;;4.45;;
40252;SDS011;25972;51.854;4.534;2022-12-24T00:31:33;11.30;;;2.08;;
40252;SDS011;25972;51.854;4.534;2022-12-24T00:33:59;15.70;;;2.83;;
40252;SDS011;25972;51.854;4.534;2022-12-24T00:36:25;29.17;;;2.95;;
40252;SDS011;25972;51.854;4.534;2022-12-24T00:38:51;9.90;;;2.42;;
40252;SDS011;25972;51.854;4.534;2022-12-24T00:41:16;28.70;;;4.22;;
40252;SDS011;25972;51.854;4.534;2022-12-24T00:48:48;36.20;;;5.05;;
40252;SDS011;25972;51.854;4.534;2022-12-24T00:51:14;32.88;;;3.72;;
40252;SDS011;25972;51.854;4.534;2022-12-24T00:53:41;18.10;;;2.88;;
40252;SDS011;25972;51.854;4.534;2022-12-24T00:56:07;31.35;;;4.68;;
40252;SDS011;25972;51.854;4.534;2022-12-24T00:58:33;36.60;;;4.18;;
40252;SDS011;25972;51.854;4.534;2022-12-24T01:00:59;25.25;;;4.50;;
40252;SDS011;25972;51.854;4.534;2022-12-24T01:03:25;9.32;;;2.90;;
40252;SDS011;25972;51.854;4.534;2022-12-24T01:06:03;29.05;;;3.50;;
40252;SDS011;25972;51.854;4.534;2022-12-24T01:08:35;35.17;;;3.80;;
40252;SDS011;25972;51.854;4.534;2022-12-24T01:11:02;26.98;;;3.85;;
40252;SDS011;25972;51.854;4.534;2022-12-24T01:13:29;42.13;;;4.78;;
40252;SDS011;25972;51.854;4.534;2022-12-24T01:15:56;14.20;;;2.92;;
40252;SDS011;25972;51.854;4.534;2022-12-24T01:18:22;42.58;;;5.18;;
40252;SDS011;25972;51.854;4.534;2022-12-24T01:21:00;33.13;;;4.15;;
40252;SDS011;25972;51.854;4.534;2022-12-24T01:23:27;32.53;;;3.63;;
40252;SDS011;25972;51.854;4.534;2022-12-24T01:26:01;41.05;;;4.60;;
40252;SDS011;25972;51.854;4.534;2022-12-24T01:28:28;17.98;;;2.28;;
40252;SDS011;25972;51.854;4.534;2022-12-24T01:30:54;8.95;;;2.13;;
40252;SDS011;25972;51.854;4.534;2022-12-24T01:33:20;18.48;;;3.08;;
40252;SDS011;25972;51.854;4.534;2022-12-24T01:35:46;9.00;;;1.95;;
40252;SDS011;25972;51.854;4.534;2022-12-24T01:38:13;16.70;;;2.63;;
40252;SDS011;25972;51.854;4.534;2022-12-24T01:40:40;26.42;;;3.08;;
40252;SDS011;25972;51.854;4.534;2022-12-24T01:43:27;4.63;;;1.92;;
40252;SDS011;25972;51.854;4.534;2022-12-24T01:46:05;17.40;;;2.95;;
40252;SDS011;25972;51.854;4.534;2022-12-24T01:48:57;23.65;;;3.85;;
40252;SDS011;25972;51.854;4.534;2022-12-24T01:54:06;16.00;;;2.00;;
40252;SDS011;25972;51.854;4.534;2022-12-24T01:56:50;13.00;;;3.58;;
40252;SDS011;25972;51.854;4.534;2022-12-24T01:59:18;15.43;;;3.08;;
40252;SDS011;25972;51.854;4.534;2022-12-24T02:01:48;23.92;;;2.67;;
40252;SDS011;25972;51.854;4.534;2022-12-24T02:06:54;6.20;;;1.58;;
40252;SDS011;25972;51.854;4.534;2022-12-24T02:09:20;32.30;;;3.55;;
40252;SDS011;25972;51.854;4.534;2022-12-24T02:11:46;35.33;;;4.45;;
40252;SDS011;25972;51.854;4.534;2022-12-24T02:14:13;26.05;;;3.72;;
40252;SDS011;25972;51.854;4.534;2022-12-24T02:22:14;24.35;;;2.72;;
40252;SDS011;25972;51.854;4.534;2022-12-24T02:30:13;44.78;;;4.32;;
40252;SDS011;25972;51.854;4.534;2022-12-24T02:33:03;22.45;;;3.80;;
40252;SDS011;25972;51.854;4.534;2022-12-24T02:36:48;19.30;;;3.47;;
40252;SDS011;25972;51.854;4.534;2022-12-24T02:39:16;40.80;;;4.50;;
40252;SDS011;25972;51.854;4.534;2022-12-24T02:41:48;4.50;;;1.33;;
40252;SDS011;25972;51.854;4.534;2022-12-24T02:47:09;31.50;;;4.75;;
40252;SDS011;25972;51.854;4.534;2022-12-24T02:49:36;21.95;;;3.95;;
40252;SDS011;25972;51.854;4.534;2022-12-24T02:52:03;25.25;;;2.65;;
40252;SDS011;25972;51.854;4.534;2022-12-24T02:54:29;9.32;;;2.22;;
40252;SDS011;25972;51.854;4.534;2022-12-24T03:04:48;22.20;;;3.00;;
40252;SDS011;25972;51.854;4.534;2022-12-24T03:07:33;31.75;;;4.00;;
40252;SDS011;25972;51.854;4.534;2022-12-24T03:13:01;20.50;;;2.75;;
40252;SDS011;25972;51.854;4.534;2022-12-24T03:15:32;15.63;;;2.35;;
40252;SDS011;25972;51.854;4.534;2022-12-24T03:17:59;5.43;;;1.77;;
40252;SDS011;25972;51.854;4.534;2022-12-24T03:20:30;14.32;;;2.80;;
40252;SDS011;25972;51.854;4.534;2022-12-24T03:23:08;27.23;;;4.00;;
40252;SDS011;25972;51.854;4.534;2022-12-24T03:25:34;32.08;;;3.88;;
40252;SDS011;25972;51.854;4.534;2022-12-24T03:28:04;27.08;;;2.97;;
40252;SDS011;25972;51.854;4.534;2022-12-24T03:30:32;1.17;;;0.63;;
40252;SDS011;25972;51.854;4.534;2022-12-24T03:32:58;10.05;;;3.05;;
40252;SDS011;25972;51.854;4.534;2022-12-24T03:35:23;30.92;;;3.47;;
40252;SDS011;25972;51.854;4.534;2022-12-24T03:37:50;42.80;;;3.83;;
40252;SDS011;25972;51.854;4.534;2022-12-24T03:40:16;32.45;;;4.50;;
40252;SDS011;25972;51.854;4.534;2022-12-24T03:42:42;30.92;;;2.97;;
40252;SDS011;25972;51.854;4.534;2022-12-24T03:45:08;15.68;;;2.58;;
40252;SDS011;25972;51.854;4.534;2022-12-24T03:47:34;16.77;;;3.30;;
40252;SDS011;25972;51.854;4.534;2022-12-24T03:50:00;19.17;;;2.40;;
40252;SDS011;25972;51.854;4.534;2022-12-24T03:52:26;30.30;;;3.92;;
40252;SDS011;25972;51.854;4.534;2022-12-24T03:54:52;29.55;;;3.63;;
40252;SDS011;25972;51.854;4.534;2022-12-24T03:57:18;5.63;;;1.50;;
40252;SDS011;25972;51.854;4.534;2022-12-24T03:59:44;27.45;;;3.05;;
40252;SDS011;25972;51.854;4.534;2022-12-24T04:02:10;39.03;;;4.70;;
40252;SDS011;25972;51.854;4.534;2022-12-24T04:04:36;20.35;;;3.50;;
40252;SDS011;25972;51.854;4.534;2022-12-24T04:07:02;36.25;;;3.80;;
40252;SDS011;25972;51.854;4.534;2022-12-24T04:09:29;41.25;;;4.25;;
40252;SDS011;25972;51.854;4.534;2022-12-24T04:11:55;26.75;;;3.47;;
40252;SDS011;25972;51.854;4.534;2022-12-24T04:14:20;27.10;;;3.97;;
40252;SDS011;25972;51.854;4.534;2022-12-24T04:16:46;16.63;;;2.88;;
40252;SDS011;25972;51.854;4.534;2022-12-24T04:19:12;18.70;;;3.03;;
40252;SDS011;25972;51.854;4.534;2022-12-24T04:21:38;21.92;;;4.57;;
40252;SDS011;25972;51.854;4.534;2022-12-24T04:24:05;29.55;;;4.45;;
40252;SDS011;25972;51.854;4.534;2022-12-24T04:26:30;27.27;;;3.78;;
40252;SDS011;25972;51.854;4.534;2022-12-24T04:28:56;50.30;;;5.18;;
40252;SDS011;25972;51.854;4.534;2022-12-24T04:31:22;18.83;;;3.88;;
40252;SDS011;25972;51.854;4.534;2022-12-24T04:33:49;34.40;;;5.57;;
40252;SDS011;25972;51.854;4.534;2022-12-24T04:36:16;36.03;;;5.40;;
40252;SDS011;25972;51.854;4.534;2022-12-24T04:38:43;38.72;;;4.95;;
40252;SDS011;25972;51.854;4.534;2022-12-24T04:41:17;14.68;;;3.47;;
40252;SDS011;25972;51.854;4.534;2022-12-24T04:43:45;11.13;;;2.63;;
40252;SDS011;25972;51.854;4.534;2022-12-24T04:46:12;27.35;;;4.65;;
40252;SDS011;25972;51.854;4.534;2022-12-24T04:48:42;30.38;;;4.75;;
40252;SDS011;25972;51.854;4.534;2022-12-24T04:51:08;14.43;;;2.63;;
40252;SDS011;25972;51.854;4.534;2022-12-24T04:53:35;24.08;;;4.18;;
40252;SDS011;25972;51.854;4.534;2022-12-24T04:56:02;18.90;;;3.90;;
40252;SDS011;25972;51.854;4.534;2022-12-24T04:58:31;42.10;;;4.97;;
40252;SDS011;25972;51.854;4.534;2022-12-24T05:01:02;41.72;;;4.90;;
40252;SDS011;25972;51.854;4.534;2022-12-24T05:03:29;28.13;;;4.45;;
40252;SDS011;25972;51.854;4.534;2022-12-24T05:06:01;10.02;;;2.90;;
40252;SDS011;25972;51.854;4.534;2022-12-24T05:08:32;31.05;;;3.05;;
40252;SDS011;25972;51.854;4.534;2022-12-24T05:11:00;40.72;;;5.78;;
40252;SDS011;25972;51.854;4.534;2022-12-24T05:13:27;28.95;;;4.20;;
40252;SDS011;25972;51.854;4.534;2022-12-24T05:15:53;31.67;;;3.63;;
40252;SDS011;25972;51.854;4.534;2022-12-24T05:18:19;39.28;;;5.75;;
40252;SDS011;25972;51.854;4.534;2022-12-24T05:20:46;36.22;;;5.07;;
40252;SDS011;25972;51.854;4.534;2022-12-24T05:23:16;42.90;;;5.47;;
40252;SDS011;25972;51.854;4.534;2022-12-24T05:26:02;21.08;;;3.83;;
40252;SDS011;25972;51.854;4.534;2022-12-24T05:28:48;35.95;;;3.78;;
40252;SDS011;25972;51.854;4.534;2022-12-24T05:31:20;37.03;;;5.28;;
40252;SDS011;25972;51.854;4.534;2022-12-24T05:33:47;41.25;;;5.55;;
40252;SDS011;25972;51.854;4.534;2022-12-24T05:36:14;19.77;;;2.70;;
40252;SDS011;25972;51.854;4.534;2022-12-24T05:38:40;24.15;;;4.25;;
40252;SDS011;25972;51.854;4.534;2022-12-24T05:41:07;20.95;;;3.30;;
40252;SDS011;25972;51.854;4.534;2022-12-24T05:43:34;27.85;;;3.85;;
40252;SDS011;25972;51.854;4.534;2022-12-24T05:46:01;23.00;;;4.32;;
40252;SDS011;25972;51.854;4.534;2022-12-24T05:48:28;6.43;;;2.08;;
40252;SDS011;25972;51.854;4.534;2022-12-24T05:50:54;43.17;;;5.15;;
40252;SDS011;25972;51.854;4.534;2022-12-24T05:53:20;46.22;;;5.28;;
40252;SDS011;25972;51.854;4.534;2022-12-24T05:55:47;23.23;;;3.42;;
40252;SDS011;25972;51.854;4.534;2022-12-24T05:58:13;16.65;;;2.00;;
40252;SDS011;25972;51.854;4.534;2022-12-24T06:00:40;27.65;;;4.45;;
40252;SDS011;25972;51.854;4.534;2022-12-24T06:03:07;27.60;;;5.28;;
40252;SDS011;25972;51.854;4.534;2022-12-24T06:05:32;23.58;;;5.53;;
40252;SDS011;25972;51.854;4.534;2022-12-24T06:07:58;38.92;;;4.78;;
40252;SDS011;25972;51.854;4.534;2022-12-24T06:10:24;20.33;;;3.28;;
40252;SDS011;25972;51.854;4.534;2022-12-24T06:12:50;32.85;;;5.25;;
40252;SDS011;25972;51.854;4.534;2022-12-24T06:15:17;32.63;;;4.43;;
40252;SDS011;25972;51.854;4.534;2022-12-24T06:17:44;21.10;;;3.38;;
40252;SDS011;25972;51.854;4.534;2022-12-24T06:20:09;19.70;;;4.07;;
40252;SDS011;25972;51.854;4.534;2022-12-24T06:22:36;30.70;;;3.88;;
40252;SDS011;25972;51.854;4.534;2022-12-24T06:25:01;30.92;;;4.78;;
40252;SDS011;25972;51.854;4.534;2022-12-24T06:27:28;47.15;;;6.05;;
40252;SDS011;25972;51.854;4.534;2022-12-24T06:29:53;39.58;;;4.97;;
40252;SDS011;25972;51.854;4.534;2022-12-24T06:32:19;24.38;;;3.38;;
40252;SDS011;25972;51.854;4.534;2022-12-24T06:34:45;35.63;;;5.03;;
40252;SDS011;25972;51.854;4.534;2022-12-24T06:37:11;18.95;;;4.28;;
40252;SDS011;25972;51.854;4.534;2022-12-24T06:39:43;51.58;;;5.25;;
40252;SDS011;25972;51.854;4.534;2022-12-24T06:42:10;25.77;;;3.83;;
40252;SDS011;25972;51.854;4.534;2022-12-24T06:44:37;43.40;;;5.78;;
40252;SDS011;25972;51.854;4.534;2022-12-24T06:47:03;21.90;;;3.33;;
40252;SDS011;25972;51.854;4.534;2022-12-24T06:49:29;41.13;;;5.00;;
40252;SDS011;25972;51.854;4.534;2022-12-24T06:51:55;24.65;;;3.60;;
40252;SDS011;25972;51.854;4.534;2022-12-24T06:54:21;16.73;;;3.55;;
40252;SDS011;25972;51.854;4.534;2022-12-24T06:56:46;17.27;;;3.60;;
40252;SDS011;25972;51.854;4.534;2022-12-24T06:59:12;14.70;;;2.17;;
40252;SDS011;25972;51.854;4.534;2022-12-24T07:01:38;26.25;;;3.42;;
40252;SDS011;25972;51.854;4.534;2022-12-24T07:04:04;35.60;;;5.00;;
40252;SDS011;25972;51.854;4.534;2022-12-24T07:06:30;25.20;;;3.58;;
40252;SDS011;25972;51.854;4.534;2022-12-24T07:08:56;21.42;;;3.78;;
40252;SDS011;25972;51.854;4.534;2022-12-24T07:11:22;32.20;;;4.50;;
40252;SDS011;25972;51.854;4.534;2022-12-24T07:13:49;26.40;;;5.00;;
40252;SDS011;25972;51.854;4.534;2022-12-24T07:16:15;27.90;;;4.45;;
40252;SDS011;25972;51.854;4.534;2022-12-24T07:18:41;34.42;;;5.53;;
40252;SDS011;25972;51.854;4.534;2022-12-24T07:21:07;27.13;;;4.53;;
40252;SDS011;25972;51.854;4.534;2022-12-24T07:23:33;10.43;;;3.78;;
40252;SDS011;25972;51.854;4.534;2022-12-24T07:26:03;45.50;;;5.25;;
40252;SDS011;25972;51.854;4.534;2022-12-24T07:28:30;26.38;;;3.53;;
40252;SDS011;25972;51.854;4.534;2022-12-24T07:30:56;24.05;;;4.00;;
40252;SDS011;25972;51.854;4.534;2022-12-24T07:33:23;41.05;;;5.53;;
40252;SDS011;25972;51.854;4.534;2022-12-24T07:38:46;21.63;;;4.10;;
40252;SDS011;25972;51.854;4.534;2022-12-24T07:41:12;18.90;;;4.35;;
40252;SDS011;25972;51.854;4.534;2022-12-24T07:43:39;33.03;;;4.63;;
40252;SDS011;25972;51.854;4.534;2022-12-24T07:46:04;37.90;;;4.93;;
40252;SDS011;25972;51.854;4.534;2022-12-24T07:48:30;37.63;;;4.85;;
40252;SDS011;25972;51.854;4.534;2022-12-24T07:50:57;21.90;;;3.35;;
40252;SDS011;25972;51.854;4.534;2022-12-24T07:53:24;17.45;;;3.53;;
40252;SDS011;25972;51.854;4.534;2022-12-24T07:55:50;17.33;;;4.18;;
40252;SDS011;25972;51.854;4.534;2022-12-24T07:58:17;36.97;;;4.05;;
40252;SDS011;25972;51.854;4.534;2022-12-24T08:00:43;29.45;;;5.35;;
40252;SDS011;25972;51.854;4.534;2022-12-24T08:03:15;15.25;;;4.65;;
40252;SDS011;25972;51.854;4.534;2022-12-24T08:05:42;20.70;;;3.03;;
40252;SDS011;25972;51.854;4.534;2022-12-24T08:08:07;13.73;;;2.90;;
40252;SDS011;25972;51.854;4.534;2022-12-24T08:10:33;15.88;;;3.53;;
40252;SDS011;25972;51.854;4.534;2022-12-24T08:12:59;30.25;;;4.75;;
40252;SDS011;25972;51.854;4.534;2022-12-24T08:15:28;19.17;;;3.72;;
40252;SDS011;25972;51.854;4.534;2022-12-24T08:17:54;27.38;;;3.72;;
40252;SDS011;25972;51.854;4.534;2022-12-24T08:20:20;34.33;;;4.90;;
40252;SDS011;25972;51.854;4.534;2022-12-24T08:22:46;30.90;;;5.13;;
40252;SDS011;25972;51.854;4.534;2022-12-24T08:25:12;35.88;;;4.68;;
40252;SDS011;25972;51.854;4.534;2022-12-24T08:27:38;25.98;;;4.28;;
40252;SDS011;25972;51.854;4.534;2022-12-24T08:30:04;26.75;;;3.85;;
40252;SDS011;25972;51.854;4.534;2022-12-24T08:32:30;30.55;;;3.95;;
40252;SDS011;25972;51.854;4.534;2022-12-24T08:34:56;28.33;;;3.95;;
40252;SDS011;25972;51.854;4.534;2022-12-24T08:37:22;15.48;;;3.30;;
40252;SDS011;25972;51.854;4.534;2022-12-24T08:39:49;25.98;;;3.78;;
40252;SDS011;25972;51.854;4.534;2022-12-24T08:42:15;23.60;;;4.60;;
40252;SDS011;25972;51.854;4.534;2022-12-24T08:44:40;27.00;;;3.75;;
40252;SDS011;25972;51.854;4.534;2022-12-24T08:47:06;33.88;;;5.13;;
40252;SDS011;25972;51.854;4.534;2022-12-24T08:49:32;13.20;;;3.53;;
40252;SDS011;25972;51.854;4.534;2022-12-24T08:51:58;33.30;;;4.78;;
40252;SDS011;25972;51.854;4.534;2022-12-24T08:56:54;12.10;;;2.50;;
40252;SDS011;25972;51.854;4.534;2022-12-24T08:59:20;26.75;;;3.38;;
40252;SDS011;25972;51.854;4.534;2022-12-24T09:01:46;22.65;;;3.72;;
40252;SDS011;25972;51.854;4.534;2022-12-24T09:04:13;7.57;;;2.35;;
40252;SDS011;25972;51.854;4.534;2022-12-24T09:06:39;21.95;;;4.22;;
40252;SDS011;25972;51.854;4.534;2022-12-24T09:09:05;30.65;;;4.60;;
40252;SDS011;25972;51.854;4.534;2022-12-24T09:11:33;25.95;;;4.82;;
40252;SDS011;25972;51.854;4.534;2022-12-24T09:13:59;38.75;;;5.28;;
40252;SDS011;25972;51.854;4.534;2022-12-24T09:16:27;35.33;;;4.93;;
40252;SDS011;25972;51.854;4.534;2022-12-24T09:18:53;18.00;;;2.78;;
40252;SDS011;25972;51.854;4.534;2022-12-24T09:21:20;21.23;;;3.08;;
40252;SDS011;25972;51.854;4.534;2022-12-24T09:23:46;12.75;;;3.25;;
40252;SDS011;25972;51.854;4.534;2022-12-24T09:26:20;24.30;;;4.60;;
40252;SDS011;25972;51.854;4.534;2022-12-24T09:28:50;30.02;;;4.53;;
40252;SDS011;25972;51.854;4.534;2022-12-24T09:31:17;16.95;;;2.63;;
40252;SDS011;25972;51.854;4.534;2022-12-24T09:33:44;29.27;;;3.95;;
40252;SDS011;25972;51.854;4.534;2022-12-24T09:36:12;39.78;;;5.40;;
40252;SDS011;25972;51.854;4.534;2022-12-24T09:38:39;31.85;;;4.05;;
40252;SDS011;25972;51.854;4.534;2022-12-24T09:41:15;34.67;;;4.97;;
40252;SDS011;25972;51.854;4.534;2022-12-24T09:43:48;34.42;;;4.25;;
40252;SDS011;25972;51.854;4.534;2022-12-24T09:46:25;25.23;;;3.15;;
40252;SDS011;25972;51.854;4.534;2022-12-24T09:48:57;30.67;;;4.78;;
40252;SDS011;25972;51.854;4.534;2022-12-24T09:51:31;23.13;;;4.30;;
40252;SDS011;25972;51.854;4.534;2022-12-24T09:54:06;40.42;;;6.32;;
40252;SDS011;25972;51.854;4.534;2022-12-24T09:56:38;22.63;;;4.35;;
40252;SDS011;25972;51.854;4.534;2022-12-24T09:59:19;8.77;;;2.42;;
40252;SDS011;25972;51.854;4.534;2022-12-24T10:01:48;26.58;;;4.53;;
40252;SDS011;25972;51.854;4.534;2022-12-24T10:04:22;26.23;;;4.63;;
40252;SDS011;25972;51.854;4.534;2022-12-24T10:09:47;27.45;;;4.95;;
40252;SDS011;25972;51.854;4.534;2022-12-24T10:17:32;23.92;;;4.65;;
40252;SDS011;25972;51.854;4.534;2022-12-24T10:23:04;33.45;;;6.05;;
40252;SDS011;25972;51.854;4.534;2022-12-24T10:28:23;31.50;;;6.35;;
40252;SDS011;25972;51.854;4.534;2022-12-24T10:31:02;26.10;;;5.38;;
40252;SDS011;25972;51.854;4.534;2022-12-24T10:33:32;34.80;;;5.22;;
40252;SDS011;25972;51.854;4.534;2022-12-24T10:36:04;25.77;;;4.38;;
40252;SDS011;25972;51.854;4.534;2022-12-24T10:38:40;38.92;;;7.38;;
40252;SDS011;25972;51.854;4.534;2022-12-24T10:41:06;42.70;;;10.60;;
40252;SDS011;25972;51.854;4.534;2022-12-24T10:43:35;37.95;;;9.40;;
40252;SDS011;25972;51.854;4.534;2022-12-24T10:46:15;38.92;;;6.03;;
40252;SDS011;25972;51.854;4.534;2022-12-24T10:51:20;39.17;;;7.93;;
40252;SDS011;25972;51.854;4.534;2022-12-24T10:54:07;32.22;;;6.05;;
40252;SDS011;25972;51.854;4.534;2022-12-24T10:56:41;27.73;;;5.25;;
40252;SDS011;25972;51.854;4.534;2022-12-24T11:02:26;32.20;;;4.65;;
40252;SDS011;25972;51.854;4.534;2022-12-24T11:04:54;40.97;;;5.32;;
40252;SDS011;25972;51.854;4.534;2022-12-24T11:07:23;25.77;;;5.07;;
40252;SDS011;25972;51.854;4.534;2022-12-24T11:10:02;33.70;;;4.93;;
40252;SDS011;25972;51.854;4.534;2022-12-24T11:12:39;41.42;;;6.43;;
40252;SDS011;25972;51.854;4.534;2022-12-24T11:15:25;40.60;;;5.63;;
40252;SDS011;25972;51.854;4.534;2022-12-24T11:18:00;20.48;;;4.18;;
40252;SDS011;25972;51.854;4.534;2022-12-24T11:20:30;35.35;;;5.82;;
40252;SDS011;25972;51.854;4.534;2022-12-24T11:22:59;34.80;;;6.30;;
40252;SDS011;25972;51.854;4.534;2022-12-24T11:25:27;19.65;;;3.80;;
40252;SDS011;25972;51.854;4.534;2022-12-24T11:27:56;14.80;;;3.90;;
40252;SDS011;25972;51.854;4.534;2022-12-24T11:30:35;33.17;;;5.78;;
40252;SDS011;25972;51.854;4.534;2022-12-24T11:35:28;7.50;;;2.50;;
40252;SDS011;25972;51.854;4.534;2022-12-24T11:40:42;33.05;;;4.38;;
40252;SDS011;25972;51.854;4.534;2022-12-24T11:43:15;28.52;;;4.57;;
40252;SDS011;25972;51.854;4.534;2022-12-24T11:45:52;30.42;;;5.45;;
40252;SDS011;25972;51.854;4.534;2022-12-24T11:48:24;34.63;;;6.07;;
40252;SDS011;25972;51.854;4.534;2022-12-24T11:50:56;13.07;;;2.88;;
40252;SDS011;25972;51.854;4.534;2022-12-24T11:53:43;17.50;;;4.57;;
40252;SDS011;25972;51.854;4.534;2022-12-24T11:56:56;13.43;;;4.53;;
40252;SDS011;25972;51.854;4.534;2022-12-24T11:59:12;32.00;;;7.18;;
40252;SDS011;25972;51.854;4.534;2022-12-24T12:07:05;28.40;;;5.38;;
40252;SDS011;25972;51.854;4.534;2022-12-24T12:09:40;25.75;;;4.95;;
40252;SDS011;25972;51.854;4.534;2022-12-24T12:12:28;24.33;;;5.03;;
40252;SDS011;25972;51.854;4.534;2022-12-24T12:17:38;26.25;;;4.70;;
40252;SDS011;25972;51.854;4.534;2022-12-24T12:20:29;27.30;;;4.97;;
40252;SDS011;25972;51.854;4.534;2022-12-24T12:25:47;19.27;;;3.70;;
40252;SDS011;25972;51.854;4.534;2022-12-24T12:28:40;24.42;;;4.88;;
40252;SDS011;25972;51.854;4.534;2022-12-24T12:33:45;32.27;;;5.53;;
40252;SDS011;25972;51.854;4.534;2022-12-24T12:36:23;21.90;;;4.13;;
40252;SDS011;25972;51.854;4.534;2022-12-24T12:38:54;22.65;;;4.78;;
40252;SDS011;25972;51.854;4.534;2022-12-24T12:44:15;29.85;;;5.15;;
40252;SDS011;25972;51.854;4.534;2022-12-24T12:53:15;19.73;;;4.15;;
40252;SDS011;25972;51.854;4.534;2022-12-24T12:58:58;16.70;;;3.30;;
40252;SDS011;25972;51.854;4.534;2022-12-24T13:10:01;30.08;;;5.35;;
40252;SDS011;25972;51.854;4.534;2022-12-24T13:15:39;17.27;;;3.45;;
40252;SDS011;25972;51.854;4.534;2022-12-24T13:21:10;30.65;;;5.93;;
40252;SDS011;25972;51.854;4.534;2022-12-24T13:23:42;33.40;;;5.90;;
40252;SDS011;25972;51.854;4.534;2022-12-24T13:26:11;24.10;;;4.70;;
40252;SDS011;25972;51.854;4.534;2022-12-24T13:28:38;15.25;;;3.10;;
40252;SDS011;25972;51.854;4.534;2022-12-24T13:36:13;34.60;;;5.57;;
40252;SDS011;25972;51.854;4.534;2022-12-24T13:49:39;32.80;;;8.75;;
40252;SDS011;25972;51.854;4.534;2022-12-24T13:52:14;15.05;;;3.72;;
40252;SDS011;25972;51.854;4.534;2022-12-24T13:54:47;24.65;;;6.10;;
40252;SDS011;25972;51.854;4.534;2022-12-24T13:57:22;34.08;;;6.45;;
40252;SDS011;25972;51.854;4.534;2022-12-24T14:00:00;18.77;;;3.97;;
40252;SDS011;25972;51.854;4.534;2022-12-24T14:02:37;23.90;;;5.70;;
40252;SDS011;25972;51.854;4.534;2022-12-24T14:05:16;23.85;;;5.82;;
40252;SDS011;25972;51.854;4.534;2022-12-24T14:07:51;30.25;;;4.45;;
40252;SDS011;25972;51.854;4.534;2022-12-24T14:10:27;31.65;;;4.95;;
40252;SDS011;25972;51.854;4.534;2022-12-24T14:12:56;29.50;;;4.53;;
40252;SDS011;25972;51.854;4.534;2022-12-24T14:18:15;34.67;;;6.53;;
40252;SDS011;25972;51.854;4.534;2022-12-24T14:20:43;28.05;;;4.95;;
40252;SDS011;25972;51.854;4.534;2022-12-24T14:23:17;31.00;;;6.07;;
40252;SDS011;25972;51.854;4.534;2022-12-24T14:25:55;29.27;;;4.75;;
40252;SDS011;25972;51.854;4.534;2022-12-24T14:28:23;18.70;;;3.63;;
40252;SDS011;25972;51.854;4.534;2022-12-24T14:31:01;27.83;;;5.22;;
40252;SDS011;25972;51.854;4.534;2022-12-24T14:33:33;19.55;;;4.43;;
40252;SDS011;25972;51.854;4.534;2022-12-24T14:35:59;29.77;;;5.10;;
40252;SDS011;25972;51.854;4.534;2022-12-24T14:38:27;33.70;;;5.68;;
40252;SDS011;25972;51.854;4.534;2022-12-24T14:46:56;23.98;;;5.25;;
40252;SDS011;25972;51.854;4.534;2022-12-24T14:49:51;23.52;;;5.50;;
40252;SDS011;25972;51.854;4.534;2022-12-24T14:52:32;25.85;;;5.53;;
40252;SDS011;25972;51.854;4.534;2022-12-24T15:01:01;24.45;;;6.50;;
40252;SDS011;25972;51.854;4.534;2022-12-24T15:06:34;22.80;;;6.55;;
40252;SDS011;25972;51.854;4.534;2022-12-24T15:09:01;42.25;;;12.50;;
40252;SDS011;25972;51.854;4.534;2022-12-24T15:11:27;41.75;;;11.70;;
40252;SDS011;25972;51.854;4.534;2022-12-24T15:13:55;45.10;;;14.13;;
40252;SDS011;25972;51.854;4.534;2022-12-24T15:16:26;34.00;;;8.30;;
40252;SDS011;25972;51.854;4.534;2022-12-24T15:19:02;29.40;;;5.82;;
40252;SDS011;25972;51.854;4.534;2022-12-24T15:26:53;30.23;;;5.47;;
40252;SDS011;25972;51.854;4.534;2022-12-24T15:29:23;36.08;;;6.97;;
40252;SDS011;25972;51.854;4.534;2022-12-24T15:31:59;30.70;;;6.40;;
40252;SDS011;25972;51.854;4.534;2022-12-24T15:34:36;25.60;;;5.80;;
40252;SDS011;25972;51.854;4.534;2022-12-24T15:40:03;29.88;;;6.07;;
40252;SDS011;25972;51.854;4.534;2022-12-24T15:42:59;23.80;;;5.22;;
40252;SDS011;25972;51.854;4.534;2022-12-24T15:45:29;29.92;;;5.95;;
40252;SDS011;25972;51.854;4.534;2022-12-24T15:50:55;30.77;;;5.30;;
40252;SDS011;25972;51.854;4.534;2022-12-24T15:56:09;25.65;;;5.88;;
40252;SDS011;25972;51.854;4.534;2022-12-24T16:01:44;43.47;;;10.35;;
40252;SDS011;25972;51.854;4.534;2022-12-24T16:04:15;32.28;;;6.13;;
40252;SDS011;25972;51.854;4.534;2022-12-24T16:06:56;34.78;;;7.25;;
40252;SDS011;25972;51.854;4.534;2022-12-24T16:09:30;27.25;;;6.93;;
40252;SDS011;25972;51.854;4.534;2022-12-24T16:12:11;31.80;;;7.10;;
40252;SDS011;25972;51.854;4.534;2022-12-24T16:14:46;35.30;;;6.20;;
40252;SDS011;25972;51.854;4.534;2022-12-24T16:17:17;30.25;;;7.10;;
40252;SDS011;25972;51.854;4.534;2022-12-24T16:19:46;31.38;;;6.03;;
40252;SDS011;25972;51.854;4.534;2022-12-24T16:22:15;32.50;;;7.00;;
40252;SDS011;25972;51.854;4.534;2022-12-24T16:24:55;31.23;;;7.13;;
40252;SDS011;25972;51.854;4.534;2022-12-24T16:27:22;29.00;;;8.00;;
40252;SDS011;25972;51.854;4.534;2022-12-24T16:29:48;35.45;;;7.50;;
40252;SDS011;25972;51.854;4.534;2022-12-24T16:35:01;39.60;;;7.30;;
40252;SDS011;25972;51.854;4.534;2022-12-24T16:37:28;37.00;;;7.85;;
40252;SDS011;25972;51.854;4.534;2022-12-24T16:39:54;34.97;;;7.93;;
40252;SDS011;25972;51.854;4.534;2022-12-24T16:42:19;28.20;;;7.55;;
40252;SDS011;25972;51.854;4.534;2022-12-24T16:45:04;37.20;;;8.40;;
40252;SDS011;25972;51.854;4.534;2022-12-24T16:47:31;45.92;;;8.20;;
40252;SDS011;25972;51.854;4.534;2022-12-24T16:49:58;37.45;;;8.93;;
40252;SDS011;25972;51.854;4.534;2022-12-24T16:52:25;40.30;;;8.27;;
40252;SDS011;25972;51.854;4.534;2022-12-24T16:54:53;35.25;;;7.95;;
40252;SDS011;25972;51.854;4.534;2022-12-24T16:57:20;38.13;;;8.25;;
40252;SDS011;25972;51.854;4.534;2022-12-24T16:59:47;28.65;;;9.18;;
40252;SDS011;25972;51.854;4.534;2022-12-24T17:02:14;34.53;;;9.15;;
40252;SDS011;25972;51.854;4.534;2022-12-24T17:04:41;32.08;;;8.38;;
40252;SDS011;25972;51.854;4.534;2022-12-24T17:07:08;31.52;;;8.77;;
40252;SDS011;25972;51.854;4.534;2022-12-24T17:09:36;43.33;;;8.68;;
40252;SDS011;25972;51.854;4.534;2022-12-24T17:12:02;44.90;;;8.80;;
40252;SDS011;25972;51.854;4.534;2022-12-24T17:14:28;36.17;;;9.48;;
40252;SDS011;25972;51.854;4.534;2022-12-24T17:16:54;31.52;;;8.55;;
40252;SDS011;25972;51.854;4.534;2022-12-24T17:19:19;32.97;;;8.57;;
40252;SDS011;25972;51.854;4.534;2022-12-24T17:21:46;31.92;;;11.45;;
40252;SDS011;25972;51.854;4.534;2022-12-24T17:24:12;53.28;;;20.38;;
40252;SDS011;25972;51.854;4.534;2022-12-24T17:26:38;40.53;;;16.13;;
40252;SDS011;25972;51.854;4.534;2022-12-24T17:29:05;37.50;;;12.32;;
40252;SDS011;25972;51.854;4.534;2022-12-24T17:31:31;47.90;;;16.30;;